Time;durP1;ratioP1;P1;durP2;ratioP2;P2;SDS_P1;SDS_P2;PMS_P1;PMS_P2;Temp;Humidity;BMP_temperature;BMP_pressure;BME280_temperature;BME280_humidity;BME280_pressure;Samples;Min_cycle;Max_cycle;Signal;HPM_P1;HPM_P2
2022/01/07 00:00:47;;;;;;;5.95;3.50;;;;;;;2.99;100.00;100807.63;4982816;28;20039;-74
2022/01/07 00:03:13;;;;;;;7.97;2.97;;;;;;;3.07;100.00;100798.94;4990541;28;20038;-74
2022/01/07 00:05:41;;;;;;;9.98;4.47;;;;;;;3.01;100.00;100797.47;4981647;28;20050;-74
2022/01/07 00:08:09;;;;;;;9.65;2.92;;;;;;;3.00;100.00;100803.88;4979914;28;20037;-74
2022/01/07 00:10:35;;;;;;;13.02;3.65;;;;;;;2.93;100.00;100800.06;4983329;28;20047;-74
2022/01/07 00:13:00;;;;;;;16.48;4.57;;;;;;;2.97;100.00;100791.19;4972106;28;20041;-74
2022/01/07 00:15:27;;;;;;;10.15;4.47;;;;;;;2.96;100.00;100784.28;4980487;28;20042;-73
2022/01/07 00:17:52;;;;;;;9.82;3.47;;;;;;;2.92;100.00;100790.50;4979329;28;20057;-74
2022/01/07 00:20:18;;;;;;;9.65;4.88;;;;;;;2.98;100.00;100784.75;4983711;28;20030;-74
2022/01/07 00:22:48;;;;;;;13.23;4.13;;;;;;;2.96;100.00;100776.31;4978998;28;20061;-73
2022/01/07 00:25:17;;;;;;;10.57;3.67;;;;;;;2.87;100.00;100772.00;4984289;28;20084;-74
2022/01/07 00:27:45;;;;;;;14.70;3.95;;;;;;;2.86;100.00;100770.44;4993984;28;20392;-74
2022/01/07 00:30:13;;;;;;;10.60;4.13;;;;;;;2.83;100.00;100761.19;4973960;28;20037;-73
2022/01/07 00:32:39;;;;;;;11.98;4.13;;;;;;;2.86;100.00;100770.44;4977238;28;20038;-74
2022/01/07 00:35:06;;;;;;;8.18;3.72;;;;;;;2.78;100.00;100769.28;4984818;28;20038;-74
2022/01/07 00:37:34;;;;;;;13.75;4.55;;;;;;;2.87;100.00;100767.47;4971474;28;20031;-74
2022/01/07 00:40:01;;;;;;;11.38;3.25;;;;;;;2.98;100.00;100755.50;4967857;28;20038;-74
2022/01/07 00:42:27;;;;;;;20.02;4.63;;;;;;;2.87;100.00;100756.03;4989354;28;20050;-74
2022/01/07 00:44:53;;;;;;;8.10;3.70;;;;;;;2.93;100.00;100746.88;4972972;28;20050;-74
2022/01/07 00:47:18;;;;;;;19.65;4.55;;;;;;;3.01;100.00;100749.59;4991719;28;20402;-74
2022/01/07 00:49:44;;;;;;;5.30;2.47;;;;;;;2.97;100.00;100745.97;4999561;28;20035;-74
2022/01/07 00:52:12;;;;;;;7.18;3.25;;;;;;;3.06;100.00;100738.06;4973754;28;20039;-74
2022/01/07 00:54:38;;;;;;;12.02;3.70;;;;;;;2.99;100.00;100735.81;4984712;28;20042;-74
2022/01/07 00:57:04;;;;;;;16.38;4.05;;;;;;;2.91;100.00;100741.84;4978306;28;20045;-74
2022/01/07 00:59:29;;;;;;;8.40;3.78;;;;;;;2.96;100.00;100736.41;4976337;28;20039;-74
2022/01/07 01:01:57;;;;;;;14.38;3.92;;;;;;;2.88;100.00;100731.84;4982312;28;20023;-74
2022/01/07 01:04:23;;;;;;;11.70;4.63;;;;;;;2.82;100.00;100730.38;5007507;28;20032;-74
2022/01/07 01:06:48;;;;;;;13.63;4.45;;;;;;;2.72;100.00;100726.09;4994609;28;20394;-73
2022/01/07 01:09:14;;;;;;;9.98;3.80;;;;;;;2.74;100.00;100720.47;5008174;28;20050;-74
2022/01/07 01:11:39;;;;;;;10.20;3.90;;;;;;;2.83;100.00;100708.00;4983225;28;20046;-73
2022/01/07 01:14:08;;;;;;;11.90;4.18;;;;;;;2.79;100.00;100715.00;4987993;28;20034;-73
2022/01/07 01:16:40;;;;;;;14.43;4.80;;;;;;;2.76;100.00;100699.69;4974777;28;20089;-74
2022/01/07 01:19:08;;;;;;;7.38;3.33;;;;;;;2.77;100.00;100703.13;4987322;28;20360;-73
2022/01/07 01:21:35;;;;;;;10.80;3.78;;;;;;;2.95;100.00;100694.97;4992168;28;20076;-73
2022/01/07 01:24:09;;;;;;;5.95;3.30;;;;;;;2.84;100.00;100700.84;4996398;28;20406;-73
2022/01/07 01:26:37;;;;;;;13.50;4.80;;;;;;;2.85;100.00;100697.06;4991222;28;20049;-74
2022/01/07 01:29:03;;;;;;;7.15;2.80;;;;;;;2.86;100.00;100696.78;4989347;28;20069;-73
2022/01/07 01:31:30;;;;;;;10.18;3.88;;;;;;;2.94;100.00;100692.63;4981295;28;20116;-73
2022/01/07 01:33:56;;;;;;;9.02;3.97;;;;;;;2.89;100.00;100688.19;4989613;28;20080;-73
2022/01/07 01:36:22;;;;;;;8.93;3.72;;;;;;;2.83;100.00;100689.41;4982018;28;20042;-72
2022/01/07 01:38:51;;;;;;;9.43;4.00;;;;;;;2.94;100.00;100679.31;4975081;28;20065;-73
2022/01/07 01:41:16;;;;;;;5.63;2.97;;;;;;;2.82;100.00;100671.91;4982566;28;20062;-72
2022/01/07 01:43:42;;;;;;;7.55;3.03;;;;;;;2.96;100.00;100680.56;4991371;28;20069;-72
2022/01/07 01:46:07;;;;;;;13.75;4.32;;;;;;;2.95;100.00;100672.91;4993063;28;20557;-72
2022/01/07 01:48:33;;;;;;;8.38;3.58;;;;;;;2.99;100.00;100664.03;4975524;28;20046;-72
2022/01/07 01:50:59;;;;;;;5.40;2.90;;;;;;;3.03;100.00;100654.34;4982249;28;20145;-72
2022/01/07 01:53:26;;;;;;;3.88;2.45;;;;;;;3.08;100.00;100640.91;4993541;28;20038;-72
2022/01/07 01:55:57;;;;;;;4.38;2.47;;;;;;;3.06;100.00;100652.97;4989850;28;20035;-72
2022/01/07 01:58:23;;;;;;;7.15;3.10;;;;;;;2.95;100.00;100631.16;4981872;28;20053;-72
2022/01/07 02:00:48;;;;;;;7.43;3.47;;;;;;;3.04;100.00;100639.19;4977903;28;20042;-72
2022/01/07 02:03:13;;;;;;;7.90;2.95;;;;;;;3.05;100.00;100636.22;4988806;28;20113;-72
2022/01/07 02:05:39;;;;;;;9.60;3.28;;;;;;;3.14;100.00;100629.06;4983632;28;20066;-73
2022/01/07 02:08:04;;;;;;;8.32;3.47;;;;;;;3.09;100.00;100621.22;4973762;28;20112;-72
2022/01/07 02:10:33;;;;;;;7.90;2.95;;;;;;;3.15;100.00;100624.53;4973568;28;20038;-72
2022/01/07 02:12:58;;;;;;;12.98;3.92;;;;;;;3.16;100.00;100628.75;4983562;28;20395;-73
2022/01/07 02:15:24;;;;;;;8.50;3.35;;;;;;;3.15;100.00;100627.97;4984853;28;20027;-73
2022/01/07 02:17:50;;;;;;;9.82;3.45;;;;;;;3.14;100.00;100612.31;4992132;28;20513;-72
2022/01/07 02:20:19;;;;;;;5.30;2.25;;;;;;;3.24;100.00;100609.38;4975248;28;20031;-73
2022/01/07 02:22:45;;;;;;;9.88;3.08;;;;;;;3.20;100.00;100616.41;4983476;28;20034;-72
2022/01/07 02:25:12;;;;;;;5.55;2.65;;;;;;;3.11;100.00;100611.06;4991233;28;20041;-72
2022/01/07 02:27:39;;;;;;;8.50;3.38;;;;;;;3.21;100.00;100610.81;4991705;28;20049;-72
2022/01/07 02:30:07;;;;;;;4.88;2.85;;;;;;;3.30;100.00;100610.81;4991463;28;20034;-72
2022/01/07 02:32:33;;;;;;;7.72;2.17;;;;;;;3.24;100.00;100602.19;4991695;28;20038;-72
2022/01/07 02:34:58;;;;;;;16.55;2.65;;;;;;;3.34;100.00;100601.13;4984756;28;20081;-73
2022/01/07 02:37:24;;;;;;;7.32;2.92;;;;;;;3.34;100.00;100595.81;4974660;28;20035;-73
2022/01/07 02:39:49;;;;;;;8.60;2.92;;;;;;;3.28;100.00;100587.19;4977292;28;20108;-72
2022/01/07 02:42:15;;;;;;;11.93;2.22;;;;;;;3.20;100.00;100577.28;4991005;28;20049;-73
2022/01/07 02:44:43;;;;;;;13.65;3.53;;;;;;;3.16;100.00;100589.63;5002912;28;20026;-72
2022/01/07 02:47:09;;;;;;;7.05;2.70;;;;;;;3.02;100.00;100594.25;4980139;28;20547;-73
2022/01/07 02:49:34;;;;;;;3.97;2.10;;;;;;;3.25;100.00;100595.78;4978470;28;20035;-72
2022/01/07 02:52:00;;;;;;;4.63;2.13;;;;;;;3.30;100.00;100578.91;4972255;28;20491;-72
2022/01/07 02:54:25;;;;;;;7.63;3.42;;;;;;;3.21;100.00;100578.09;4991375;28;20026;-73
2022/01/07 02:56:51;;;;;;;3.97;2.15;;;;;;;3.24;100.00;100567.63;4984241;28;20045;-73
2022/01/07 02:59:17;;;;;;;10.55;2.72;;;;;;;3.15;100.00;100566.81;4981832;28;20034;-73
2022/01/07 03:01:45;;;;;;;8.45;1.90;;;;;;;3.19;100.00;100565.09;4990201;28;20034;-73
2022/01/07 03:04:14;;;;;;;4.55;2.38;;;;;;;3.11;100.00;100565.84;4980930;28;20127;-73
2022/01/07 03:06:41;;;;;;;9.55;3.28;;;;;;;3.15;100.00;100558.03;4974357;28;20573;-73
2022/01/07 03:09:09;;;;;;;5.53;2.35;;;;;;;3.09;100.00;100556.59;4986688;28;20038;-72
2022/01/07 03:11:35;;;;;;;5.20;2.78;;;;;;;3.13;100.00;100552.25;4972467;28;20823;-73
2022/01/07 03:14:00;;;;;;;5.50;2.28;;;;;;;3.18;100.00;100544.91;4967554;28;20092;-73
2022/01/07 03:16:28;;;;;;;3.90;1.77;;;;;;;3.21;100.00;100533.66;4985001;28;20392;-72
2022/01/07 03:18:56;;;;;;;3.65;1.85;;;;;;;3.12;100.00;100535.47;4983037;28;20408;-72
2022/01/07 03:21:22;;;;;;;5.07;2.70;;;;;;;3.05;100.00;100535.16;4991931;28;20050;-73
2022/01/07 03:23:47;;;;;;;2.03;1.40;;;;;;;3.07;100.00;100532.19;4988859;28;20157;-72
2022/01/07 03:26:13;;;;;;;5.35;2.03;;;;;;;3.10;100.00;100523.56;4974380;28;20034;-72
2022/01/07 03:28:43;;;;;;;6.63;2.15;;;;;;;3.12;100.00;100521.41;4993512;28;20411;-73
2022/01/07 03:31:11;;;;;;;2.40;1.70;;;;;;;3.17;100.00;100514.09;4984280;28;20045;-73
2022/01/07 03:33:36;;;;;;;3.58;1.88;;;;;;;3.19;100.00;100509.25;4975395;28;20043;-72
2022/01/07 03:36:03;;;;;;;12.88;1.88;;;;;;;3.27;100.00;100510.34;4992254;28;20042;-72
2022/01/07 03:38:28;;;;;;;3.83;2.08;;;;;;;3.27;100.00;100503.13;4984040;28;20451;-73
2022/01/07 03:40:54;;;;;;;2.83;1.75;;;;;;;3.26;100.00;100498.13;4984676;28;20043;-72
2022/01/07 03:43:19;;;;;;;4.78;2.20;;;;;;;3.28;100.00;100510.03;4998533;28;20030;-72
2022/01/07 03:45:45;;;;;;;3.65;1.33;;;;;;;3.31;100.00;100495.34;4984946;28;20074;-73
2022/01/07 03:48:11;;;;;;;6.13;2.10;;;;;;;3.34;100.00;100476.09;4976928;28;20027;-72
2022/01/07 03:50:36;;;;;;;4.40;2.05;;;;;;;3.36;100.00;100488.00;4982170;28;20775;-72
2022/01/07 03:53:02;;;;;;;1.85;1.50;;;;;;;3.39;100.00;100479.38;4982372;28;20079;-72
2022/01/07 03:55:29;;;;;;;4.05;1.77;;;;;;;3.22;100.00;100466.03;4990656;28;20030;-73
2022/01/07 03:57:55;;;;;;;4.90;1.70;;;;;;;3.28;100.00;100475.44;4981315;28;20046;-73
2022/01/07 04:00:25;;;;;;;3.78;1.65;;;;;;;3.16;100.00;100469.16;4978313;28;20022;-73
2022/01/07 04:02:54;;;;;;;2.35;1.48;;;;;;;3.20;100.00;100468.22;4989001;28;20442;-73
2022/01/07 04:05:22;;;;;;;8.30;1.77;;;;;;;3.25;100.00;100475.28;4989465;28;20027;-73
2022/01/07 04:10:27;;;;;;;8.25;2.05;;;;;;;3.28;100.00;100470.13;4946695;28;20489;-69
2022/01/07 04:12:52;;;;;;;3.97;1.45;;;;;;;3.20;100.00;100476.22;4935621;29;20073;-70
2022/01/07 04:15:21;;;;;;;2.20;1.30;;;;;;;3.31;100.00;100471.41;4955509;28;20063;-70
2022/01/07 04:17:50;;;;;;;2.60;2.25;;;;;;;3.31;100.00;100466.84;4949268;28;20054;-70
2022/01/07 04:20:19;;;;;;;3.25;1.48;;;;;;;3.23;100.00;100467.59;4948569;29;20043;-70
2022/01/07 04:22:48;;;;;;;2.88;1.55;;;;;;;3.23;100.00;100462.28;4949569;28;20767;-69
2022/01/07 04:25:19;;;;;;;15.90;3.30;;;;;;;3.41;100.00;100463.09;4940529;28;20038;-70
2022/01/07 04:27:49;;;;;;;2.53;1.40;;;;;;;3.30;100.00;100462.63;4950273;28;20110;-69
2022/01/07 04:30:15;;;;;;;2.25;1.27;;;;;;;3.22;100.00;100454.63;4943409;29;20054;-70
2022/01/07 04:32:42;;;;;;;8.13;1.60;;;;;;;3.23;100.00;100456.97;4942976;28;20808;-69
2022/01/07 04:35:12;;;;;;;5.32;1.73;;;;;;;3.15;100.00;100455.09;4951451;28;20412;-69
2022/01/07 04:37:39;;;;;;;3.53;1.38;;;;;;;3.33;100.00;100450.59;4951421;29;20086;-70
2022/01/07 04:40:08;;;;;;;4.07;1.77;;;;;;;3.31;100.00;100448.22;4975940;28;20023;-70
2022/01/07 04:42:34;;;;;;;4.05;1.65;;;;;;;3.39;100.00;100446.66;4947120;28;20035;-70
2022/01/07 04:45:00;;;;;;;2.25;1.63;;;;;;;3.45;100.00;100442.75;4948291;28;20030;-70
2022/01/07 04:47:25;;;;;;;4.78;1.10;;;;;;;3.30;100.00;100441.34;4945604;28;20035;-70
2022/01/07 04:49:54;;;;;;;1.27;0.90;;;;;;;3.40;100.00;100441.03;4938266;28;20047;-70
2022/01/07 04:52:21;;;;;;;2.33;1.05;;;;;;;3.35;100.00;100435.84;4951728;28;20036;-70
2022/01/07 04:54:46;;;;;;;5.80;1.23;;;;;;;3.37;100.00;100439.00;4950166;29;20039;-70
2022/01/07 04:57:12;;;;;;;2.78;1.35;;;;;;;3.35;100.00;100432.41;4943674;28;20036;-70
2022/01/07 04:59:38;;;;;;;2.65;1.17;;;;;;;3.33;100.00;100435.38;4944416;28;20043;-70
2022/01/07 05:02:03;;;;;;;1.38;0.98;;;;;;;3.33;100.00;100427.41;4950699;28;20107;-69
2022/01/07 05:04:31;;;;;;;2.35;1.70;;;;;;;3.46;100.00;100431.81;4936893;28;20448;-70
2022/01/07 05:06:57;;;;;;;2.72;1.30;;;;;;;3.50;100.00;100429.31;4944617;28;20043;-70
2022/01/07 05:09:22;;;;;;;5.93;1.60;;;;;;;3.42;100.00;100419.44;4948360;28;20043;-70
2022/01/07 05:11:51;;;;;;;2.05;1.17;;;;;;;3.41;100.00;100416.00;4973221;28;20043;-70
2022/01/07 05:14:18;;;;;;;6.20;2.08;;;;;;;3.39;100.00;100417.38;4942432;29;20046;-70
2022/01/07 05:16:44;;;;;;;3.90;1.27;;;;;;;3.32;100.00;100406.44;4949978;28;20039;-70
2022/01/07 05:19:10;;;;;;;6.55;1.83;;;;;;;3.37;100.00;100400.94;4951312;28;20039;-70
2022/01/07 05:21:36;;;;;;;4.10;1.30;;;;;;;3.36;100.00;100404.72;4949576;28;20082;-70
2022/01/07 05:24:02;;;;;;;2.55;1.20;;;;;;;3.36;100.00;100394.06;4948562;28;20485;-70
2022/01/07 05:26:27;;;;;;;1.60;1.38;;;;;;;3.36;100.00;100381.56;4942742;28;20036;-69
2022/01/07 05:28:53;;;;;;;1.90;0.90;;;;;;;3.46;100.00;100375.94;4937692;29;20628;-69
2022/01/07 05:31:26;;;;;;;10.07;1.02;;;;;;;3.49;100.00;100377.94;4953558;28;20119;-70
2022/01/07 05:33:54;;;;;;;6.50;1.27;;;;;;;3.49;100.00;100383.28;4949134;28;20094;-70
2022/01/07 05:36:21;;;;;;;4.63;1.38;;;;;;;3.51;100.00;100373.09;4940681;29;20038;-70
2022/01/07 05:38:47;;;;;;;3.63;1.30;;;;;;;3.40;100.00;100369.19;4948428;29;20115;-69
2022/01/07 05:41:13;;;;;;;10.77;1.15;;;;;;;3.30;100.00;100372.16;4948618;29;20109;-70
2022/01/07 05:43:39;;;;;;;1.63;0.98;;;;;;;3.32;100.00;100364.66;4939599;29;20043;-69
2022/01/07 05:46:05;;;;;;;3.20;1.55;;;;;;;3.29;100.00;100362.59;4938512;29;20130;-70
2022/01/07 05:48:32;;;;;;;3.22;1.40;;;;;;;3.48;100.00;100352.41;4946720;28;20110;-69
2022/01/07 05:50:58;;;;;;;2.67;0.95;;;;;;;3.38;100.00;100357.28;4934462;29;20063;-70
2022/01/07 05:53:23;;;;;;;2.50;1.17;;;;;;;3.26;100.00;100359.78;4948834;29;20078;-69
2022/01/07 05:55:54;;;;;;;5.65;1.45;;;;;;;3.25;100.00;100351.03;4930144;29;20035;-70
2022/01/07 05:58:20;;;;;;;6.15;1.02;;;;;;;3.30;100.00;100348.22;4949720;29;20094;-70
2022/01/07 06:00:45;;;;;;;3.22;1.33;;;;;;;3.19;100.00;100339.00;4931234;29;20480;-70
2022/01/07 06:03:11;;;;;;;2.33;1.00;;;;;;;3.16;100.00;100334.28;4946583;29;20081;-70
2022/01/07 06:05:39;;;;;;;1.85;1.27;;;;;;;3.16;100.00;100334.28;4951071;28;20106;-70
2022/01/07 06:08:04;;;;;;;1.23;1.00;;;;;;;3.30;100.00;100332.25;4949663;29;20044;-70
2022/01/07 06:10:30;;;;;;;5.40;2.17;;;;;;;3.29;100.00;100332.59;4949080;28;20033;-69
2022/01/07 06:12:56;;;;;;;2.08;1.75;;;;;;;3.20;100.00;100327.25;4942013;28;20028;-69
2022/01/07 06:15:21;;;;;;;6.75;1.77;;;;;;;3.31;100.00;100325.81;4950655;29;20070;-69
2022/01/07 06:17:47;;;;;;;1.08;0.98;;;;;;;3.27;100.00;100319.56;4949520;28;20444;-70
2022/01/07 06:20:12;;;;;;;2.15;1.38;;;;;;;3.23;100.00;100317.88;4944510;29;20066;-69
2022/01/07 06:22:38;;;;;;;14.52;1.55;;;;;;;3.27;100.00;100308.16;4940039;28;20040;-69
2022/01/07 06:25:05;;;;;;;7.30;1.60;;;;;;;3.22;100.00;100303.78;4946175;28;20047;-69
2022/01/07 06:27:30;;;;;;;6.75;1.33;;;;;;;3.20;100.00;100294.53;4950662;28;20866;-69
2022/01/07 06:29:57;;;;;;;1.13;0.93;;;;;;;3.26;100.00;100303.94;4932125;28;20038;-70
2022/01/07 06:32:25;;;;;;;7.97;1.55;;;;;;;3.19;100.00;100293.78;4949761;29;20035;-70
2022/01/07 06:34:52;;;;;;;2.42;1.35;;;;;;;3.13;100.00;100295.03;4940464;29;20079;-69
2022/01/07 06:37:18;;;;;;;6.95;1.77;;;;;;;3.21;100.00;100293.47;4952229;29;20085;-69
2022/01/07 06:39:47;;;;;;;1.25;1.00;;;;;;;3.27;100.00;100292.22;4952289;29;20035;-69
2022/01/07 06:42:14;;;;;;;1.95;1.33;;;;;;;3.20;100.00;100286.56;4946389;28;20364;-70
2022/01/07 06:44:40;;;;;;;5.57;1.88;;;;;;;3.07;100.00;100296.28;4953219;28;20042;-70
2022/01/07 06:47:06;;;;;;;1.58;1.17;;;;;;;3.16;100.00;100286.41;4952465;29;20030;-70
2022/01/07 06:49:31;;;;;;;1.98;1.00;;;;;;;3.12;100.00;100285.47;4946086;29;20090;-69
2022/01/07 06:51:57;;;;;;;3.58;1.38;;;;;;;3.10;100.00;100282.34;4939797;29;20036;-69
2022/01/07 06:54:23;;;;;;;2.80;1.58;;;;;;;3.18;100.00;100284.22;4933280;29;20396;-70
2022/01/07 06:56:49;;;;;;;2.28;1.50;;;;;;;3.29;100.00;100284.69;4947437;29;20039;-69
2022/01/07 06:59:17;;;;;;;3.20;1.83;;;;;;;3.22;100.00;100282.50;4953415;28;20059;-69
2022/01/07 07:01:46;;;;;;;1.73;1.13;;;;;;;3.24;100.00;100282.19;4946300;29;20042;-70
2022/01/07 07:04:12;;;;;;;3.53;1.23;;;;;;;3.24;100.00;100282.97;4952078;28;20523;-69
2022/01/07 07:06:37;;;;;;;3.70;1.42;;;;;;;3.18;100.00;100278.91;4953579;28;20045;-69
2022/01/07 07:09:04;;;;;;;3.25;1.08;;;;;;;3.20;100.00;100275.91;4937438;29;20563;-69
2022/01/07 07:11:29;;;;;;;3.30;1.35;;;;;;;3.28;100.00;100275.13;4932105;28;20040;-69
2022/01/07 07:13:55;;;;;;;3.17;1.80;;;;;;;3.26;100.00;100274.66;4947801;29;20059;-69
2022/01/07 07:16:23;;;;;;;1.85;1.00;;;;;;;3.37;100.00;100271.38;4933507;29;20032;-69
2022/01/07 07:18:49;;;;;;;3.13;1.50;;;;;;;3.26;100.00;100272.00;4933247;29;20040;-70
2022/01/07 07:21:15;;;;;;;2.08;1.35;;;;;;;3.35;100.00;100265.56;4935487;29;20132;-69
2022/01/07 07:23:41;;;;;;;3.08;1.67;;;;;;;3.27;100.00;100262.94;4952328;28;20023;-69
2022/01/07 07:26:06;;;;;;;3.78;1.67;;;;;;;3.25;100.00;100257.91;4952401;28;20050;-70
2022/01/07 07:28:52;;;;;;;3.33;1.40;;;;;;;3.15;100.00;100273.44;4952269;28;20109;-69
2022/01/07 07:31:19;;;;;;;3.45;1.52;;;;;;;3.15;100.00;100265.47;4893351;29;20606;-70
2022/01/07 07:36:27;;;;;;;2.65;1.38;;;;;;;3.14;100.00;100272.66;4890049;29;20056;-69
2022/01/07 07:39:02;;;;;;;1.30;1.08;;;;;;;3.13;100.00;100276.41;4888193;29;20742;-69
2022/01/07 07:41:34;;;;;;;2.95;1.75;;;;;;;3.02;100.00;100277.06;4891520;29;20040;-69
2022/01/07 07:44:00;;;;;;;1.30;1.00;;;;;;;3.02;100.00;100277.81;4888128;29;20044;-69
2022/01/07 07:46:30;;;;;;;3.53;1.73;;;;;;;3.05;100.00;100263.91;4870030;29;20044;-69
2022/01/07 07:48:56;;;;;;;6.35;1.08;;;;;;;3.13;100.00;100265.00;4874335;29;20053;-69
2022/01/07 07:51:22;;;;;;;3.30;1.50;;;;;;;3.36;100.00;100274.34;4885342;29;20417;-68
2022/01/07 07:53:48;;;;;;;1.60;1.35;;;;;;;3.20;100.00;100259.97;4887171;29;20037;-70
2022/01/07 07:56:15;;;;;;;4.00;1.75;;;;;;;3.14;100.00;100262.00;4868766;29;20464;-69
2022/01/07 07:58:42;;;;;;;3.47;1.60;;;;;;;3.19;100.00;100275.16;4877690;29;20048;-69
2022/01/07 08:01:08;;;;;;;3.08;1.70;;;;;;;3.13;100.00;100271.09;4886258;29;20060;-69
2022/01/07 08:03:37;;;;;;;1.90;1.38;;;;;;;3.18;100.00;100262.16;4880478;29;20048;-68
2022/01/07 08:06:02;;;;;;;2.13;1.48;;;;;;;3.09;100.00;100264.06;4891812;29;20218;-69
2022/01/07 08:08:28;;;;;;;3.15;1.60;;;;;;;3.18;100.00;100251.50;4924245;29;20083;-69
2022/01/07 08:10:57;;;;;;;3.55;1.30;;;;;;;3.22;100.00;100261.22;4950286;28;20043;-69
2022/01/07 08:13:30;;;;;;;2.80;1.25;;;;;;;3.16;100.00;100264.34;4934038;29;20043;-69
2022/01/07 08:16:06;;;;;;;2.13;1.50;;;;;;;3.17;100.00;100260.59;4946884;29;20110;-69
2022/01/07 08:18:34;;;;;;;3.25;1.80;;;;;;;3.24;100.00;100253.72;4943526;29;20031;-69
2022/01/07 08:21:04;;;;;;;2.65;1.48;;;;;;;3.15;100.00;100252.16;4951529;28;20082;-69
2022/01/07 08:23:35;;;;;;;2.83;1.65;;;;;;;3.19;100.00;100240.59;4948965;28;20119;-69
2022/01/07 08:26:03;;;;;;;6.03;1.47;;;;;;;3.13;100.00;100247.16;4949999;29;20035;-69
2022/01/07 08:28:35;;;;;;;2.38;1.85;;;;;;;3.21;100.00;100243.72;4945315;28;20282;-69
2022/01/07 08:31:11;;;;;;;4.63;1.35;;;;;;;3.27;100.00;100245.09;4941263;28;20039;-69
2022/01/07 08:36:26;;;;;;;3.42;1.50;;;;;;;3.22;100.00;100247.13;4950934;29;20035;-69
2022/01/07 08:38:56;;;;;;;5.07;1.60;;;;;;;3.21;100.00;100246.38;4940073;28;20034;-69
2022/01/07 08:41:25;;;;;;;2.58;1.40;;;;;;;3.23;100.00;100238.81;4945721;28;20095;-69
2022/01/07 08:43:53;;;;;;;1.77;1.23;;;;;;;3.29;100.00;100242.88;4937687;29;20461;-69
2022/01/07 08:46:21;;;;;;;4.55;1.85;;;;;;;3.34;100.00;100245.41;4948645;29;20066;-69
2022/01/07 08:48:47;;;;;;;4.00;1.75;;;;;;;3.55;100.00;100251.59;4951775;28;20093;-69
2022/01/07 08:51:15;;;;;;;5.28;1.73;;;;;;;3.54;100.00;100255.34;4945040;28;20042;-69
2022/01/07 08:53:44;;;;;;;3.20;1.63;;;;;;;3.43;100.00;100251.47;4945876;29;20039;-70
2022/01/07 08:56:09;;;;;;;2.50;1.70;;;;;;;3.40;100.00;100248.66;4947282;28;20046;-69
2022/01/07 08:58:37;;;;;;;2.67;1.85;;;;;;;3.37;100.00;100239.44;4947690;29;20043;-68
2022/01/07 09:01:04;;;;;;;2.63;1.60;;;;;;;3.36;100.00;100253.06;4946936;28;20037;-68
2022/01/07 09:03:29;;;;;;;6.47;2.92;;;;;;;3.31;100.00;100243.34;4946537;28;20043;-69
2022/01/07 09:05:55;;;;;;;5.05;1.98;;;;;;;3.29;100.00;100248.22;4949155;28;20031;-68
2022/01/07 09:08:21;;;;;;;4.15;1.48;;;;;;;3.37;100.00;100247.41;4954823;29;20028;-68
2022/01/07 09:10:47;;;;;;;3.70;2.00;;;;;;;3.33;100.00;100238.50;4949746;29;20038;-68
2022/01/07 09:13:13;;;;;;;3.08;1.83;;;;;;;3.37;100.00;100239.44;4978619;28;20035;-68
2022/01/07 09:15:38;;;;;;;2.53;1.60;;;;;;;3.47;100.00;100235.66;4952500;28;20499;-68
2022/01/07 09:18:09;;;;;;;6.53;1.67;;;;;;;3.43;100.00;100237.38;4953348;29;20452;-69
2022/01/07 09:20:39;;;;;;;;;;;;;;;3.40;100.00;100238.81;4935859;29;20403;-69
2022/01/07 09:23:06;;;;;;;2.20;1.63;;;;;;;3.37;100.00;100234.13;4950917;29;20580;-68
2022/01/07 09:25:31;;;;;;;3.08;1.48;;;;;;;3.22;100.00;100236.50;4952818;28;20054;-69
2022/01/07 09:27:57;;;;;;;2.90;1.75;;;;;;;3.26;100.00;100232.91;4954240;29;20074;-68
2022/01/07 09:30:22;;;;;;;4.65;1.70;;;;;;;3.31;100.00;100223.97;4948496;29;20612;-69
2022/01/07 09:32:48;;;;;;;2.20;1.42;;;;;;;3.32;100.00;100231.63;4942775;28;20456;-68
2022/01/07 09:35:15;;;;;;;3.90;1.80;;;;;;;3.37;100.00;100228.78;4953344;28;20045;-69
2022/01/07 09:37:41;;;;;;;4.05;1.88;;;;;;;3.40;100.00;100225.50;4941326;29;20031;-68
2022/01/07 09:40:07;;;;;;;5.35;2.03;;;;;;;3.50;100.00;100216.41;4946553;29;20054;-69
2022/01/07 09:42:35;;;;;;;2.45;1.30;;;;;;;3.50;100.00;100219.81;4950811;29;20086;-68
2022/01/07 09:45:01;;;;;;;3.17;1.67;;;;;;;3.62;100.00;100221.81;4943556;29;20035;-69
2022/01/07 09:47:27;;;;;;;4.70;2.60;;;;;;;3.56;100.00;100225.78;4948338;28;20035;-69
2022/01/07 09:49:53;;;;;;;2.20;1.55;;;;;;;3.44;100.00;100236.31;4942927;29;20070;-69
2022/01/07 09:52:18;;;;;;;3.47;1.70;;;;;;;3.45;100.00;100225.34;4946940;29;20035;-69
2022/01/07 09:54:43;;;;;;;2.70;1.77;;;;;;;3.50;100.00;100221.72;4951030;28;20039;-69
2022/01/07 09:57:11;;;;;;;3.80;1.70;;;;;;;3.42;100.00;100225.97;4951945;28;20028;-69
2022/01/07 09:59:37;;;;;;;4.22;2.05;;;;;;;3.38;100.00;100227.72;4949790;28;20086;-68
2022/01/07 10:02:05;;;;;;;6.93;2.03;;;;;;;3.62;100.00;100222.59;4945937;28;20400;-68
2022/01/07 10:04:38;;;;;;;4.60;1.65;;;;;;;3.48;100.00;100226.59;4941315;29;20089;-68
2022/01/07 10:07:21;;;;;;;2.75;1.80;;;;;;;3.44;100.00;100217.66;4952385;28;20043;-69
2022/01/07 10:09:58;;;;;;;4.00;1.77;;;;;;;3.59;100.00;100199.31;4947472;28;20737;-68
2022/01/07 10:12:25;;;;;;;4.32;2.30;;;;;;;3.41;100.00;100208.44;4950914;28;20031;-70
2022/01/07 10:15:15;;;;;;;4.05;1.52;;;;;;;3.48;100.00;100211.38;4953699;28;20480;-69
2022/01/07 10:17:42;;;;;;;4.97;1.90;;;;;;;3.42;100.00;100204.69;4941239;28;20039;-69
2022/01/07 10:20:08;;;;;;;2.92;1.48;;;;;;;3.44;100.00;100207.81;4945936;29;20037;-69
2022/01/07 10:22:58;;;;;;;3.60;2.00;;;;;;;3.42;100.00;100204.69;4941701;28;20042;-69
2022/01/07 10:25:29;;;;;;;2.53;2.00;;;;;;;3.30;100.00;100209.88;4945161;28;20134;-69
2022/01/07 10:28:01;;;;;;;2.55;2.10;;;;;;;3.30;100.00;100206.44;4951084;29;20584;-69
2022/01/07 10:30:33;;;;;;;1.63;1.38;;;;;;;3.30;100.00;100206.44;4951659;29;20141;-69
2022/01/07 10:33:01;;;;;;;3.40;1.83;;;;;;;3.23;100.00;100212.22;4950546;28;20035;-69
2022/01/07 10:35:27;;;;;;;2.63;1.70;;;;;;;3.26;100.00;100203.63;4949137;29;20497;-69
2022/01/07 10:37:58;;;;;;;4.05;1.75;;;;;;;3.35;100.00;100195.59;4952010;28;20039;-69
2022/01/07 10:40:37;;;;;;;4.00;1.85;;;;;;;3.43;100.00;100192.94;4950679;28;20043;-69
2022/01/07 10:43:16;;;;;;;1.73;1.25;;;;;;;3.41;100.00;100186.38;4949421;28;21162;-69
2022/01/07 10:45:58;;;;;;;4.03;1.70;;;;;;;3.53;100.00;100178.50;4947095;29;20041;-69
2022/01/07 10:48:55;;;;;;;4.03;1.80;;;;;;;3.45;100.00;100179.31;4949223;29;20059;-69
2022/01/07 10:51:26;;;;;;;2.75;1.60;;;;;;;3.50;100.00;100179.16;4949075;29;20043;-69
2022/01/07 10:53:55;;;;;;;2.40;1.63;;;;;;;3.52;100.00;100177.72;4949177;28;20035;-69
2022/01/07 10:56:35;;;;;;;2.95;1.50;;;;;;;3.63;100.00;100178.16;4951440;28;20039;-70
2022/01/07 10:59:09;;;;;;;2.50;1.52;;;;;;;3.77;100.00;100177.94;4946090;29;20031;-70
2022/01/07 11:01:56;;;;;;;3.22;1.60;;;;;;;3.61;100.00;100181.13;4942734;28;20027;-70
2022/01/07 11:04:26;;;;;;;4.78;2.10;;;;;;;3.65;100.00;100182.06;4943378;28;20039;-70
2022/01/07 11:06:53;;;;;;;2.85;1.60;;;;;;;3.64;100.00;100175.16;4950454;29;20062;-70
2022/01/07 11:09:19;;;;;;;3.85;2.38;;;;;;;3.74;100.00;100173.22;4947109;29;20539;-70
2022/01/07 11:12:01;;;;;;;5.88;2.25;;;;;;;3.77;100.00;100180.59;4950864;29;20082;-70
2022/01/07 11:14:35;;;;;;;1.83;1.27;;;;;;;3.62;100.00;100174.69;4939225;29;20504;-69
2022/01/07 11:17:04;;;;;;;3.97;2.05;;;;;;;3.66;100.00;100185.47;4949186;29;20039;-69
2022/01/07 11:19:35;;;;;;;5.72;2.33;;;;;;;3.68;100.00;100185.94;4945282;29;20043;-70
2022/01/07 11:22:02;;;;;;;3.72;2.05;;;;;;;3.74;100.00;100181.22;4942369;29;20043;-69
2022/01/07 11:24:44;;;;;;;3.60;2.35;;;;;;;3.87;100.00;100175.66;4949283;28;20097;-70
2022/01/07 11:27:14;;;;;;;5.43;2.08;;;;;;;3.73;100.00;100179.66;4945045;28;20042;-70
2022/01/07 11:29:52;;;;;;;3.88;2.38;;;;;;;3.68;100.00;100170.75;4948296;28;20105;-70
2022/01/07 11:32:29;;;;;;;3.90;1.70;;;;;;;3.63;100.00;100178.94;4957266;28;20119;-70
2022/01/07 11:34:57;;;;;;;2.40;1.88;;;;;;;3.71;100.00;100164.03;4932077;29;20420;-70